DNEN

Details ICAO DNEN (ENU)
Name ENUGU
Region Nigeria
Timezone Africa/Lagos (UTC+1.0)
Plans Departing 5
Arriving 6
Stats Elevation 466 ft / 142 m (AMSL)
Location 6.474051° 7.561609°
Runways 1
Magnetic Variation 1.185° W
Sunrise 2017-12-15 05:33:50 UTC / 2017-12-15 06:33:50 Local
Sunset 2017-12-15 17:18:45 UTC / 2017-12-15 18:18:45 Local
Advertisement - Login to hide

Runways

ID Width Length Bearing (true) Bearing (mag) Surface Threshold Offset Overrun Length
08 148 ft / 45 m 7,873 ft / 2,400 m 80.07° 81.25° Asphalt 0 ft / 0 m 215 ft / 66 m
26 148 ft / 45 m 7,873 ft / 2,400 m 260.08° 261.26° Asphalt 0 ft / 0 m 215 ft / 66 m

Map

Weather


0- 5 10 15 20 25 30 35+ Temperature / ° C

Clouds and Precipitation
Forecast for 2017-12-15 06:00 UTC. Updated 2 hours ago

Ground ~20,000 ft ~40,000 ft Winds

METAR

Not found

TAF

TAF DNEN 141540Z 1418/1524 15006KT 6000 NSC TEMPO 1420/1500 1500 HZ PROB30 1423/1505 0600 DU BECMG 1506/1508 04008KT 0800 DU

Frequencies

Tower 123.30 MHz TWR
Warning: Do not use this data for real-world aviation or navigation. No guarantee of current accuracy is given.